sensor_id;sensor_type;location;lat;lon;timestamp;pressure;altitude;pressure_sealevel;temperature;humidity
50166;BME280;36071;48.140;11.516;2022-11-20T00:03:25;94960.0;;;6.0;76.3
50166;BME280;36071;48.140;11.516;2022-11-20T00:08:27;94960.0;;;5.9;76.8
50166;BME280;36071;48.140;11.516;2022-11-20T00:13:25;94970.0;;;5.9;76.6
50166;BME280;36071;48.140;11.516;2022-11-20T00:18:25;94970.0;;;6.0;76.4
50166;BME280;36071;48.140;11.516;2022-11-20T00:23:25;94960.0;;;6.1;76.5
50166;BME280;36071;48.140;11.516;2022-11-20T00:28:25;94970.0;;;5.9;76.7
50166;BME280;36071;48.140;11.516;2022-11-20T00:33:25;94970.0;;;6.0;76.4
50166;BME280;36071;48.140;11.516;2022-11-20T00:38:25;94970.0;;;5.9;77.2
50166;BME280;36071;48.140;11.516;2022-11-20T00:43:25;94980.0;;;6.0;76.6
50166;BME280;36071;48.140;11.516;2022-11-20T00:48:25;94990.0;;;5.9;78.1
50166;BME280;36071;48.140;11.516;2022-11-20T00:53:25;94980.0;;;5.8;77.3
50166;BME280;36071;48.140;11.516;2022-11-20T00:58:28;94990.0;;;5.8;76.9
50166;BME280;36071;48.140;11.516;2022-11-20T01:03:26;94990.0;;;5.9;77.0
50166;BME280;36071;48.140;11.516;2022-11-20T01:08:25;94990.0;;;5.9;76.7
50166;BME280;36071;48.140;11.516;2022-11-20T01:13:25;94990.0;;;5.8;76.8
50166;BME280;36071;48.140;11.516;2022-11-20T01:18:25;95000.0;;;5.9;76.5
50166;BME280;36071;48.140;11.516;2022-11-20T01:23:25;95000.0;;;6.0;76.2
50166;BME280;36071;48.140;11.516;2022-11-20T01:28:25;95000.0;;;6.0;76.6
50166;BME280;36071;48.140;11.516;2022-11-20T01:33:25;95000.0;;;6.0;76.5
50166;BME280;36071;48.140;11.516;2022-11-20T01:38:25;95000.0;;;5.9;76.6
50166;BME280;36071;48.140;11.516;2022-11-20T01:43:25;95010.0;;;5.9;77.1
50166;BME280;36071;48.140;11.516;2022-11-20T01:48:27;95010.0;;;5.9;76.7
50166;BME280;36071;48.140;11.516;2022-11-20T01:53:26;95010.0;;;5.9;76.5
50166;BME280;36071;48.140;11.516;2022-11-20T01:58:27;95010.0;;;5.9;76.0
50166;BME280;36071;48.140;11.516;2022-11-20T02:03:25;95000.0;;;5.8;76.9
50166;BME280;36071;48.140;11.516;2022-11-20T02:08:26;95010.0;;;5.8;77.0
50166;BME280;36071;48.140;11.516;2022-11-20T02:13:25;95010.0;;;5.8;76.8
50166;BME280;36071;48.140;11.516;2022-11-20T02:18:25;95010.0;;;5.8;76.7
50166;BME280;36071;48.140;11.516;2022-11-20T02:23:26;95020.0;;;5.8;77.4
50166;BME280;36071;48.140;11.516;2022-11-20T02:28:25;95010.0;;;5.8;76.9
50166;BME280;36071;48.140;11.516;2022-11-20T02:33:25;95000.0;;;5.8;76.6
50166;BME280;36071;48.140;11.516;2022-11-20T02:38:25;95010.0;;;5.8;76.5
50166;BME280;36071;48.140;11.516;2022-11-20T02:43:25;95010.0;;;5.7;76.8
50166;BME280;36071;48.140;11.516;2022-11-20T02:48:25;95010.0;;;5.7;76.9
50166;BME280;36071;48.140;11.516;2022-11-20T02:53:25;95010.0;;;5.7;76.6
50166;BME280;36071;48.140;11.516;2022-11-20T02:58:25;95010.0;;;5.8;75.8
50166;BME280;36071;48.140;11.516;2022-11-20T03:03:25;95010.0;;;5.7;75.9
50166;BME280;36071;48.140;11.516;2022-11-20T03:08:25;95000.0;;;5.7;75.9
50166;BME280;36071;48.140;11.516;2022-11-20T03:13:25;95000.0;;;5.7;75.1
50166;BME280;36071;48.140;11.516;2022-11-20T03:18:27;95000.0;;;5.7;75.0
50166;BME280;36071;48.140;11.516;2022-11-20T03:23:25;95000.0;;;5.7;74.9
50166;BME280;36071;48.140;11.516;2022-11-20T03:28:25;95000.0;;;5.8;74.2
50166;BME280;36071;48.140;11.516;2022-11-20T03:33:27;95000.0;;;5.7;74.4
50166;BME280;36071;48.140;11.516;2022-11-20T03:38:25;94990.0;;;5.8;74.3
50166;BME280;36071;48.140;11.516;2022-11-20T03:43:25;94990.0;;;5.8;73.7
50166;BME280;36071;48.140;11.516;2022-11-20T03:53:25;95000.0;;;5.8;74.4
50166;BME280;36071;48.140;11.516;2022-11-20T03:58:25;95000.0;;;5.7;74.2
50166;BME280;36071;48.140;11.516;2022-11-20T04:03:25;95010.0;;;5.6;74.4
50166;BME280;36071;48.140;11.516;2022-11-20T04:08:25;95010.0;;;5.6;74.3
50166;BME280;36071;48.140;11.516;2022-11-20T04:13:25;95010.0;;;5.7;73.9
50166;BME280;36071;48.140;11.516;2022-11-20T04:23:25;95010.0;;;5.6;74.2
50166;BME280;36071;48.140;11.516;2022-11-20T04:48:25;95020.0;;;5.7;73.3
50166;BME280;36071;48.140;11.516;2022-11-20T04:53:25;95010.0;;;5.6;73.4
50166;BME280;36071;48.140;11.516;2022-11-20T04:58:25;95000.0;;;5.6;74.2
50166;BME280;36071;48.140;11.516;2022-11-20T05:03:25;95010.0;;;5.5;74.1
50166;BME280;36071;48.140;11.516;2022-11-20T05:08:25;95010.0;;;5.5;74.4
50166;BME280;36071;48.140;11.516;2022-11-20T05:13:26;95010.0;;;5.5;74.2
50166;BME280;36071;48.140;11.516;2022-11-20T05:18:27;95010.0;;;5.6;74.5
50166;BME280;36071;48.140;11.516;2022-11-20T05:23:25;95010.0;;;5.6;73.9
50166;BME280;36071;48.140;11.516;2022-11-20T05:28:25;95010.0;;;5.4;74.5
50166;BME280;36071;48.140;11.516;2022-11-20T05:33:25;95010.0;;;5.4;74.7
50166;BME280;36071;48.140;11.516;2022-11-20T05:38:25;95000.0;;;5.5;74.4
50166;BME280;36071;48.140;11.516;2022-11-20T05:43:25;95010.0;;;5.5;74.4
50166;BME280;36071;48.140;11.516;2022-11-20T05:48:25;95020.0;;;5.5;74.2
50166;BME280;36071;48.140;11.516;2022-11-20T05:53:25;95010.0;;;5.5;73.7
50166;BME280;36071;48.140;11.516;2022-11-20T05:58:25;95010.0;;;5.5;73.9
50166;BME280;36071;48.140;11.516;2022-11-20T06:03:25;95010.0;;;5.5;73.2
50166;BME280;36071;48.140;11.516;2022-11-20T06:08:25;95020.0;;;5.4;73.1
50166;BME280;36071;48.140;11.516;2022-11-20T06:13:25;95010.0;;;5.4;72.6
50166;BME280;36071;48.140;11.516;2022-11-20T06:18:25;95030.0;;;5.4;71.6
50166;BME280;36071;48.140;11.516;2022-11-20T06:23:25;95010.0;;;5.4;71.4
50166;BME280;36071;48.140;11.516;2022-11-20T06:28:25;95010.0;;;5.3;70.9
50166;BME280;36071;48.140;11.516;2022-11-20T06:33:25;95020.0;;;5.3;71.0
50166;BME280;36071;48.140;11.516;2022-11-20T06:38:25;95020.0;;;5.3;70.3
50166;BME280;36071;48.140;11.516;2022-11-20T06:43:25;95030.0;;;5.2;70.5
50166;BME280;36071;48.140;11.516;2022-11-20T06:48:25;95030.0;;;5.3;70.1
50166;BME280;36071;48.140;11.516;2022-11-20T06:53:25;95030.0;;;5.2;69.4
50166;BME280;36071;48.140;11.516;2022-11-20T06:58:26;95040.0;;;5.3;69.6
50166;BME280;36071;48.140;11.516;2022-11-20T07:03:25;95050.0;;;5.3;69.1
50166;BME280;36071;48.140;11.516;2022-11-20T07:08:25;95050.0;;;5.5;68.5
50166;BME280;36071;48.140;11.516;2022-11-20T07:13:25;95050.0;;;5.7;68.1
50166;BME280;36071;48.140;11.516;2022-11-20T07:18:25;95060.0;;;5.6;67.9
50166;BME280;36071;48.140;11.516;2022-11-20T07:28:48;95070.0;;;5.5;68.5
50166;BME280;36071;48.140;11.516;2022-11-20T07:33:25;95070.0;;;5.5;68.7
50166;BME280;36071;48.140;11.516;2022-11-20T07:38:25;95060.0;;;5.4;69.2
50166;BME280;36071;48.140;11.516;2022-11-20T07:43:25;95060.0;;;5.4;69.7
50166;BME280;36071;48.140;11.516;2022-11-20T07:48:25;95060.0;;;5.4;70.2
50166;BME280;36071;48.140;11.516;2022-11-20T07:53:25;95060.0;;;5.5;69.8
50166;BME280;36071;48.140;11.516;2022-11-20T07:58:27;95060.0;;;5.5;70.1
50166;BME280;36071;48.140;11.516;2022-11-20T08:03:25;95010.0;;;5.2;69.9
50166;BME280;36071;48.140;11.516;2022-11-20T08:08:25;95070.0;;;5.6;69.8
50166;BME280;36071;48.140;11.516;2022-11-20T08:13:25;95080.0;;;5.6;69.8
50166;BME280;36071;48.140;11.516;2022-11-20T08:18:25;95080.0;;;5.6;70.3
50166;BME280;36071;48.140;11.516;2022-11-20T08:23:25;95070.0;;;5.6;70.0
50166;BME280;36071;48.140;11.516;2022-11-20T08:28:25;95080.0;;;5.7;69.7
50166;BME280;36071;48.140;11.516;2022-11-20T08:33:25;95080.0;;;5.7;69.3
50166;BME280;36071;48.140;11.516;2022-11-20T08:38:25;95080.0;;;5.8;68.8
50166;BME280;36071;48.140;11.516;2022-11-20T08:43:25;95070.0;;;5.9;68.4
50166;BME280;36071;48.140;11.516;2022-11-20T08:48:25;95080.0;;;5.9;68.1
50166;BME280;36071;48.140;11.516;2022-11-20T08:53:25;95070.0;;;6.0;67.4
50166;BME280;36071;48.140;11.516;2022-11-20T08:58:25;95080.0;;;6.1;66.8
50166;BME280;36071;48.140;11.516;2022-11-20T09:03:25;95070.0;;;6.0;66.7
50166;BME280;36071;48.140;11.516;2022-11-20T09:08:25;95080.0;;;6.2;66.3
50166;BME280;36071;48.140;11.516;2022-11-20T09:13:26;95070.0;;;6.1;66.0
50166;BME280;36071;48.140;11.516;2022-11-20T09:18:25;95070.0;;;6.2;65.5
50166;BME280;36071;48.140;11.516;2022-11-20T09:23:25;95070.0;;;6.4;65.2
50166;BME280;36071;48.140;11.516;2022-11-20T09:28:25;95060.0;;;6.5;64.5
50166;BME280;36071;48.140;11.516;2022-11-20T09:33:25;95060.0;;;6.5;63.5
50166;BME280;36071;48.140;11.516;2022-11-20T09:38:25;95070.0;;;6.5;63.5
50166;BME280;36071;48.140;11.516;2022-11-20T09:43:28;95060.0;;;6.4;62.8
50166;BME280;36071;48.140;11.516;2022-11-20T09:48:29;95060.0;;;6.5;62.8
50166;BME280;36071;48.140;11.516;2022-11-20T09:53:28;95040.0;;;6.6;62.7
50166;BME280;36071;48.140;11.516;2022-11-20T09:58:26;95030.0;;;7.0;61.2
50166;BME280;36071;48.140;11.516;2022-11-20T10:03:26;95040.0;;;7.4;59.6
50166;BME280;36071;48.140;11.516;2022-11-20T10:08:27;95030.0;;;9.0;54.9
50166;BME280;36071;48.140;11.516;2022-11-20T10:13:29;95030.0;;;10.8;50.1
50166;BME280;36071;48.140;11.516;2022-11-20T10:18:29;95030.0;;;9.6;52.4
50166;BME280;36071;48.140;11.516;2022-11-20T10:23:29;95040.0;;;8.8;54.2
50166;BME280;36071;48.140;11.516;2022-11-20T10:28:28;95040.0;;;8.6;55.3
50166;BME280;36071;48.140;11.516;2022-11-20T10:33:25;95030.0;;;8.4;55.9
50166;BME280;36071;48.140;11.516;2022-11-20T10:38:26;95040.0;;;8.2;56.1
50166;BME280;36071;48.140;11.516;2022-11-20T10:43:27;95030.0;;;8.1;56.9
50166;BME280;36071;48.140;11.516;2022-11-20T10:48:25;95030.0;;;8.3;56.3
50166;BME280;36071;48.140;11.516;2022-11-20T10:53:31;95030.0;;;8.1;57.0
50166;BME280;36071;48.140;11.516;2022-11-20T10:58:27;95030.0;;;8.1;57.2
50166;BME280;36071;48.140;11.516;2022-11-20T11:03:26;95020.0;;;7.9;57.4
50166;BME280;36071;48.140;11.516;2022-11-20T11:08:26;95020.0;;;8.0;58.0
50166;BME280;36071;48.140;11.516;2022-11-20T11:13:25;95030.0;;;8.0;57.7
50166;BME280;36071;48.140;11.516;2022-11-20T11:18:26;95020.0;;;7.9;57.8
50166;BME280;36071;48.140;11.516;2022-11-20T11:23:29;95000.0;;;7.9;58.0
50166;BME280;36071;48.140;11.516;2022-11-20T11:28:26;95000.0;;;7.8;58.4
50166;BME280;36071;48.140;11.516;2022-11-20T11:33:25;95000.0;;;7.9;58.4
50166;BME280;36071;48.140;11.516;2022-11-20T11:38:28;95000.0;;;8.2;56.5
50166;BME280;36071;48.140;11.516;2022-11-20T11:43:25;95000.0;;;8.1;56.7
50166;BME280;36071;48.140;11.516;2022-11-20T11:48:25;95000.0;;;8.2;56.1
50166;BME280;36071;48.140;11.516;2022-11-20T11:53:25;94990.0;;;8.2;56.7
50166;BME280;36071;48.140;11.516;2022-11-20T11:58:32;95000.0;;;8.5;56.2
50166;BME280;36071;48.140;11.516;2022-11-20T12:03:27;95000.0;;;8.2;56.5
50166;BME280;36071;48.140;11.516;2022-11-20T12:08:26;95010.0;;;8.0;58.6
50166;BME280;36071;48.140;11.516;2022-11-20T12:13:30;95000.0;;;7.6;62.0
50166;BME280;36071;48.140;11.516;2022-11-20T12:18:25;95010.0;;;7.4;63.2
50166;BME280;36071;48.140;11.516;2022-11-20T12:23:26;95000.0;;;7.2;62.9
50166;BME280;36071;48.140;11.516;2022-11-20T12:28:30;95000.0;;;7.0;63.4
50166;BME280;36071;48.140;11.516;2022-11-20T12:33:30;94990.0;;;7.1;64.3
50166;BME280;36071;48.140;11.516;2022-11-20T12:38:31;94990.0;;;7.1;64.7
50166;BME280;36071;48.140;11.516;2022-11-20T12:43:26;94980.0;;;7.1;64.6
50166;BME280;36071;48.140;11.516;2022-11-20T13:08:27;94990.0;;;7.0;65.9
50166;BME280;36071;48.140;11.516;2022-11-20T13:13:27;94980.0;;;6.9;66.3
50166;BME280;36071;48.140;11.516;2022-11-20T13:18:25;94970.0;;;6.9;66.8
50166;BME280;36071;48.140;11.516;2022-11-20T13:23:26;94970.0;;;6.8;67.5
50166;BME280;36071;48.140;11.516;2022-11-20T13:28:26;94970.0;;;6.6;69.2
50166;BME280;36071;48.140;11.516;2022-11-20T13:33:27;94970.0;;;6.7;69.4
50166;BME280;36071;48.140;11.516;2022-11-20T13:38:25;94960.0;;;6.6;70.1
50166;BME280;36071;48.140;11.516;2022-11-20T13:43:27;94950.0;;;6.8;70.2
50166;BME280;36071;48.140;11.516;2022-11-20T13:48:26;94950.0;;;6.9;69.8
50166;BME280;36071;48.140;11.516;2022-11-20T13:53:29;94950.0;;;6.8;70.5
50166;BME280;36071;48.140;11.516;2022-11-20T13:58:28;94950.0;;;7.0;69.1
50166;BME280;36071;48.140;11.516;2022-11-20T14:03:25;94950.0;;;6.8;69.1
50166;BME280;36071;48.140;11.516;2022-11-20T14:08:27;94940.0;;;7.0;67.8
50166;BME280;36071;48.140;11.516;2022-11-20T14:13:25;94960.0;;;7.3;67.3
50166;BME280;36071;48.140;11.516;2022-11-20T14:18:25;94960.0;;;7.3;66.0
50166;BME280;36071;48.140;11.516;2022-11-20T14:23:26;94960.0;;;7.3;65.7
50166;BME280;36071;48.140;11.516;2022-11-20T14:28:26;94960.0;;;7.2;65.6
50166;BME280;36071;48.140;11.516;2022-11-20T14:33:26;94960.0;;;7.1;66.3
50166;BME280;36071;48.140;11.516;2022-11-20T14:38:26;94950.0;;;7.1;65.4
50166;BME280;36071;48.140;11.516;2022-11-20T14:43:26;94960.0;;;7.0;66.0
50166;BME280;36071;48.140;11.516;2022-11-20T14:48:28;94960.0;;;7.0;65.7
50166;BME280;36071;48.140;11.516;2022-11-20T14:53:25;94950.0;;;6.9;66.1
50166;BME280;36071;48.140;11.516;2022-11-20T14:58:26;94950.0;;;6.8;65.6
50166;BME280;36071;48.140;11.516;2022-11-20T15:03:30;94950.0;;;6.8;64.8
50166;BME280;36071;48.140;11.516;2022-11-20T15:08:25;94960.0;;;6.8;64.7
50166;BME280;36071;48.140;11.516;2022-11-20T15:13:26;94950.0;;;6.8;64.8
50166;BME280;36071;48.140;11.516;2022-11-20T15:18:27;94950.0;;;6.8;65.2
50166;BME280;36071;48.140;11.516;2022-11-20T15:23:25;94960.0;;;6.8;65.2
50166;BME280;36071;48.140;11.516;2022-11-20T15:28:27;94960.0;;;6.7;65.6
50166;BME280;36071;48.140;11.516;2022-11-20T15:33:25;94950.0;;;6.7;65.5
50166;BME280;36071;48.140;11.516;2022-11-20T15:38:25;94950.0;;;6.7;65.9
50166;BME280;36071;48.140;11.516;2022-11-20T15:43:25;94960.0;;;6.7;65.8
50166;BME280;36071;48.140;11.516;2022-11-20T15:48:26;94950.0;;;6.6;66.1
50166;BME280;36071;48.140;11.516;2022-11-20T15:53:25;94940.0;;;6.4;67.0
50166;BME280;36071;48.140;11.516;2022-11-20T15:58:25;94890.0;;;6.1;67.5
50166;BME280;36071;48.140;11.516;2022-11-20T16:03:25;94950.0;;;6.5;67.3
50166;BME280;36071;48.140;11.516;2022-11-20T16:08:25;94940.0;;;6.4;67.2
50166;BME280;36071;48.140;11.516;2022-11-20T16:13:25;94940.0;;;6.4;67.4
50166;BME280;36071;48.140;11.516;2022-11-20T16:18:25;94940.0;;;6.3;68.2
50166;BME280;36071;48.140;11.516;2022-11-20T16:23:25;94930.0;;;6.2;68.6
50166;BME280;36071;48.140;11.516;2022-11-20T16:28:25;94930.0;;;6.2;69.0
50166;BME280;36071;48.140;11.516;2022-11-20T16:33:25;94920.0;;;6.1;69.3
50166;BME280;36071;48.140;11.516;2022-11-20T16:38:25;94930.0;;;6.2;68.9
50166;BME280;36071;48.140;11.516;2022-11-20T16:43:25;94920.0;;;6.0;69.6
50166;BME280;36071;48.140;11.516;2022-11-20T16:48:25;94920.0;;;5.9;70.0
50166;BME280;36071;48.140;11.516;2022-11-20T16:53:25;94920.0;;;5.9;70.7
50166;BME280;36071;48.140;11.516;2022-11-20T16:58:25;94920.0;;;5.7;70.5
50166;BME280;36071;48.140;11.516;2022-11-20T17:03:25;94910.0;;;5.8;69.9
50166;BME280;36071;48.140;11.516;2022-11-20T17:08:26;94900.0;;;5.8;69.9
50166;BME280;36071;48.140;11.516;2022-11-20T17:13:26;94910.0;;;5.9;69.6
50166;BME280;36071;48.140;11.516;2022-11-20T17:18:26;94910.0;;;5.7;69.5
50166;BME280;36071;48.140;11.516;2022-11-20T17:23:26;94900.0;;;5.7;70.2
50166;BME280;36071;48.140;11.516;2022-11-20T17:28:25;94900.0;;;5.7;69.8
50166;BME280;36071;48.140;11.516;2022-11-20T17:33:25;94900.0;;;5.8;69.9
50166;BME280;36071;48.140;11.516;2022-11-20T17:38:25;94890.0;;;5.8;70.0
50166;BME280;36071;48.140;11.516;2022-11-20T17:43:25;94890.0;;;5.8;69.5
50166;BME280;36071;48.140;11.516;2022-11-20T17:48:25;94890.0;;;5.7;69.8
50166;BME280;36071;48.140;11.516;2022-11-20T17:53:25;94890.0;;;5.6;70.2
50166;BME280;36071;48.140;11.516;2022-11-20T17:58:26;94880.0;;;5.6;70.0
50166;BME280;36071;48.140;11.516;2022-11-20T18:03:25;94890.0;;;5.5;70.1
50166;BME280;36071;48.140;11.516;2022-11-20T18:08:26;94880.0;;;5.4;70.4
50166;BME280;36071;48.140;11.516;2022-11-20T18:13:25;94880.0;;;5.3;71.1
50166;BME280;36071;48.140;11.516;2022-11-20T18:18:25;94880.0;;;5.0;72.3
50166;BME280;36071;48.140;11.516;2022-11-20T18:23:25;94870.0;;;5.1;72.1
50166;BME280;36071;48.140;11.516;2022-11-20T18:28:25;94870.0;;;5.1;72.0
50166;BME280;36071;48.140;11.516;2022-11-20T18:33:25;94860.0;;;5.1;72.1
50166;BME280;36071;48.140;11.516;2022-11-20T18:38:25;94860.0;;;5.1;72.0
50166;BME280;36071;48.140;11.516;2022-11-20T18:43:25;94870.0;;;5.2;71.3
50166;BME280;36071;48.140;11.516;2022-11-20T18:48:25;94850.0;;;5.2;71.0
50166;BME280;36071;48.140;11.516;2022-11-20T18:53:25;94840.0;;;5.1;71.0
50166;BME280;36071;48.140;11.516;2022-11-20T18:58:26;94840.0;;;5.1;70.9
50166;BME280;36071;48.140;11.516;2022-11-20T19:03:25;94830.0;;;5.0;71.5
50166;BME280;36071;48.140;11.516;2022-11-20T19:08:25;94830.0;;;4.8;72.3
50166;BME280;36071;48.140;11.516;2022-11-20T19:13:25;94830.0;;;4.8;72.6
50166;BME280;36071;48.140;11.516;2022-11-20T19:18:27;94830.0;;;4.7;72.8
50166;BME280;36071;48.140;11.516;2022-11-20T19:23:25;94820.0;;;4.7;72.8
50166;BME280;36071;48.140;11.516;2022-11-20T19:28:25;94820.0;;;4.8;72.8
50166;BME280;36071;48.140;11.516;2022-11-20T19:33:25;94810.0;;;4.8;72.8
50166;BME280;36071;48.140;11.516;2022-11-20T19:38:25;94810.0;;;4.9;72.7
50166;BME280;36071;48.140;11.516;2022-11-20T19:43:25;94810.0;;;4.9;72.6
50166;BME280;36071;48.140;11.516;2022-11-20T19:48:25;94810.0;;;4.9;74.6
50166;BME280;36071;48.140;11.516;2022-11-20T19:53:25;94810.0;;;5.0;72.4
50166;BME280;36071;48.140;11.516;2022-11-20T19:58:26;94800.0;;;4.9;71.6
50166;BME280;36071;48.140;11.516;2022-11-20T20:03:25;94790.0;;;4.9;71.8
50166;BME280;36071;48.140;11.516;2022-11-20T20:08:25;94790.0;;;4.8;71.8
50166;BME280;36071;48.140;11.516;2022-11-20T20:13:25;94780.0;;;4.6;72.0
50166;BME280;36071;48.140;11.516;2022-11-20T20:18:25;94770.0;;;4.5;73.1
50166;BME280;36071;48.140;11.516;2022-11-20T20:23:25;94760.0;;;4.6;72.1
50166;BME280;36071;48.140;11.516;2022-11-20T20:28:25;94770.0;;;4.7;71.6
50166;BME280;36071;48.140;11.516;2022-11-20T20:33:25;94760.0;;;4.8;70.8
50166;BME280;36071;48.140;11.516;2022-11-20T20:43:25;94760.0;;;4.8;70.3
50166;BME280;36071;48.140;11.516;2022-11-20T20:48:25;94760.0;;;4.8;70.2
50166;BME280;36071;48.140;11.516;2022-11-20T20:53:25;94750.0;;;4.8;69.7
50166;BME280;36071;48.140;11.516;2022-11-20T20:58:25;94760.0;;;4.8;69.5
50166;BME280;36071;48.140;11.516;2022-11-20T21:03:25;94760.0;;;4.8;69.2
50166;BME280;36071;48.140;11.516;2022-11-20T21:08:25;94750.0;;;4.8;70.5
50166;BME280;36071;48.140;11.516;2022-11-20T21:13:25;94750.0;;;4.9;67.4
50166;BME280;36071;48.140;11.516;2022-11-20T21:18:25;94730.0;;;4.9;66.2
50166;BME280;36071;48.140;11.516;2022-11-20T21:23:25;94730.0;;;5.1;66.1
50166;BME280;36071;48.140;11.516;2022-11-20T21:28:25;94740.0;;;5.1;64.6
50166;BME280;36071;48.140;11.516;2022-11-20T21:33:25;94740.0;;;5.1;64.2
50166;BME280;36071;48.140;11.516;2022-11-20T21:38:25;94760.0;;;5.2;64.0
50166;BME280;36071;48.140;11.516;2022-11-20T21:43:25;94770.0;;;5.3;64.7
50166;BME280;36071;48.140;11.516;2022-11-20T21:48:26;94780.0;;;5.3;66.2
50166;BME280;36071;48.140;11.516;2022-11-20T21:53:25;94790.0;;;5.2;68.8
50166;BME280;36071;48.140;11.516;2022-11-20T21:58:25;94790.0;;;5.1;70.8
50166;BME280;36071;48.140;11.516;2022-11-20T22:03:25;94780.0;;;5.0;73.6
50166;BME280;36071;48.140;11.516;2022-11-20T22:08:25;94770.0;;;4.9;75.1
50166;BME280;36071;48.140;11.516;2022-11-20T22:13:25;94770.0;;;4.8;75.6
50166;BME280;36071;48.140;11.516;2022-11-20T22:18:25;94770.0;;;4.8;76.7
50166;BME280;36071;48.140;11.516;2022-11-20T22:23:25;94760.0;;;4.8;77.6
50166;BME280;36071;48.140;11.516;2022-11-20T22:28:25;94770.0;;;4.7;79.0
50166;BME280;36071;48.140;11.516;2022-11-20T22:33:25;94770.0;;;4.5;79.8
50166;BME280;36071;48.140;11.516;2022-11-20T22:38:25;94770.0;;;4.6;80.7
50166;BME280;36071;48.140;11.516;2022-11-20T22:43:25;94790.0;;;4.5;81.8
50166;BME280;36071;48.140;11.516;2022-11-20T22:48:25;94780.0;;;4.4;82.1
50166;BME280;36071;48.140;11.516;2022-11-20T22:53:25;94790.0;;;4.3;85.2
50166;BME280;36071;48.140;11.516;2022-11-20T22:58:26;94790.0;;;4.2;84.8
50166;BME280;36071;48.140;11.516;2022-11-20T23:03:25;94780.0;;;4.1;85.9
50166;BME280;36071;48.140;11.516;2022-11-20T23:08:25;94780.0;;;4.1;86.7
50166;BME280;36071;48.140;11.516;2022-11-20T23:13:25;94770.0;;;4.1;87.1
50166;BME280;36071;48.140;11.516;2022-11-20T23:18:25;94780.0;;;4.1;86.6
50166;BME280;36071;48.140;11.516;2022-11-20T23:23:25;94790.0;;;4.1;86.2
50166;BME280;36071;48.140;11.516;2022-11-20T23:28:25;94780.0;;;4.0;86.8
50166;BME280;36071;48.140;11.516;2022-11-20T23:33:25;94780.0;;;3.9;88.0
50166;BME280;36071;48.140;11.516;2022-11-20T23:38:25;94780.0;;;4.0;86.3
50166;BME280;36071;48.140;11.516;2022-11-20T23:43:25;94780.0;;;3.9;87.1
50166;BME280;36071;48.140;11.516;2022-11-20T23:48:26;94790.0;;;3.9;86.9
50166;BME280;36071;48.140;11.516;2022-11-20T23:53:25;94770.0;;;3.9;87.2
50166;BME280;36071;48.140;11.516;2022-11-20T23:58:28;94770.0;;;4.0;87.0
